createdAt,value
2022-10-24T00:00:45.324Z,11.5
2022-10-24T00:05:47.792Z,11.1
2022-10-24T00:10:50.343Z,11.2
2022-10-24T00:15:52.489Z,11.4
2022-10-24T00:20:54.407Z,11.4
2022-10-24T00:25:56.460Z,12
2022-10-24T00:30:58.384Z,11.4
2022-10-24T00:36:00.282Z,12.3
2022-10-24T00:41:02.401Z,12.2
2022-10-24T00:46:04.890Z,11.9
2022-10-24T00:51:07.081Z,13.4
2022-10-24T00:56:08.044Z,12.7
2022-10-24T01:01:10.077Z,12
2022-10-24T01:06:12.748Z,12.7
2022-10-24T01:11:14.866Z,12.8
2022-10-24T01:16:16.763Z,12.3
2022-10-24T01:21:18.637Z,12.3
2022-10-24T01:26:20.733Z,12.9
2022-10-24T01:31:22.712Z,12.2
2022-10-24T01:36:24.573Z,13.9
2022-10-24T01:41:26.848Z,13.3
2022-10-24T01:46:28.782Z,12.6
2022-10-24T01:51:30.716Z,13.1
2022-10-24T01:56:32.905Z,13
2022-10-24T02:01:35.007Z,13.2
2022-10-24T02:06:37.433Z,13.1
2022-10-24T02:11:38.419Z,14
2022-10-24T02:16:40.358Z,14.5
2022-10-24T02:21:42.246Z,13
2022-10-24T02:26:44.505Z,13.7
2022-10-24T02:31:46.685Z,14.2
2022-10-24T02:36:48.616Z,14.3
2022-10-24T02:41:50.749Z,13.5
2022-10-24T02:46:53.066Z,13.7
2022-10-24T02:51:54.962Z,13.4
2022-10-24T02:56:57.319Z,13.1
2022-10-24T03:01:59.283Z,14
2022-10-24T03:07:01.198Z,14.3
2022-10-24T03:12:03.293Z,15.7
2022-10-24T03:17:05.378Z,15
2022-10-24T03:22:07.307Z,13.7
2022-10-24T03:27:09.291Z,15.1
2022-10-24T03:32:11.166Z,15.8
2022-10-24T03:37:13.302Z,15.2
2022-10-24T03:42:15.252Z,16.7
2022-10-24T03:47:17.391Z,15.9
2022-10-24T03:52:19.754Z,15.2
2022-10-24T04:02:24.148Z,15.3
2022-10-24T04:07:26.392Z,16.2
2022-10-24T04:12:28.921Z,15.7
2022-10-24T04:17:31.194Z,15.5
2022-10-24T04:22:33.199Z,15.5
2022-10-24T04:27:35.483Z,14.3
2022-10-24T04:32:37.841Z,22.1
2022-10-24T04:37:39.894Z,15.8
2022-10-24T04:42:42.232Z,16.5
2022-10-24T04:47:46.248Z,15.1
2022-10-24T04:52:49.065Z,17.7
2022-10-24T04:57:51.566Z,18.1
2022-10-24T05:02:55.354Z,27.7
2022-10-24T05:08:00.558Z,22.9
2022-10-24T05:13:02.545Z,17.2
2022-10-24T05:18:04.429Z,17.9
2022-10-24T05:23:06.313Z,16.1
2022-10-24T05:28:08.328Z,17.1
2022-10-24T05:33:10.312Z,18
2022-10-24T05:38:12.258Z,17.5
2022-10-24T05:43:14.207Z,17
2022-10-24T05:48:16.245Z,17.4
2022-10-24T05:53:18.230Z,17.1
2022-10-24T05:58:20.145Z,16.4
2022-10-24T06:03:22.063Z,17.2
2022-10-24T06:08:23.963Z,15.5
2022-10-24T06:13:25.943Z,16.7
2022-10-24T06:18:26.816Z,17.2
2022-10-24T06:23:28.812Z,14.2
2022-10-24T06:28:31.005Z,13.6
2022-10-24T06:33:32.869Z,27.3
2022-10-24T06:38:34.773Z,13.1
2022-10-24T06:43:37.051Z,12.9
2022-10-24T06:48:39.143Z,12.4
2022-10-24T06:53:41.904Z,11
2022-10-24T06:58:43.918Z,10.6
2022-10-24T07:03:46.217Z,9.6
2022-10-24T07:08:48.557Z,9.6
2022-10-24T07:13:50.515Z,10.3
2022-10-24T07:18:51.619Z,8.2
2022-10-24T07:23:53.665Z,13.4
2022-10-24T07:28:56.524Z,7.8
2022-10-24T07:33:59.009Z,9.9
2022-10-24T07:39:00.961Z,8.2
2022-10-24T07:44:03.546Z,7.5
2022-10-24T07:49:05.803Z,10.5
2022-10-24T07:54:07.758Z,8.5
2022-10-24T07:59:23.927Z,9.6
2022-10-24T08:04:13.928Z,10
2022-10-24T08:09:16.055Z,10.9
2022-10-24T08:14:18.225Z,14.9
2022-10-24T08:19:20.683Z,11.9
2022-10-24T08:24:22.727Z,10.9
2022-10-24T08:29:25.364Z,11.7
2022-10-24T08:34:27.330Z,12
2022-10-24T08:39:29.277Z,9.3
2022-10-24T08:44:31.752Z,9.8
2022-10-24T08:49:33.849Z,8.9
2022-10-24T08:54:35.835Z,8.9
2022-10-24T08:59:37.692Z,8.1
2022-10-24T09:04:40.173Z,9.5
2022-10-24T09:09:42.254Z,9.7
2022-10-24T09:14:44.488Z,7.7
2022-10-24T09:19:46.633Z,10
2022-10-24T09:24:48.608Z,9.9
2022-10-24T09:29:50.869Z,8.3
2022-10-24T09:34:53.108Z,8.6
2022-10-24T09:39:55.019Z,8.3
2022-10-24T09:44:56.964Z,9.9
2022-10-24T09:49:59.120Z,9.8
2022-10-24T09:55:01.187Z,13
2022-10-24T10:00:03.301Z,11.5
2022-10-24T10:05:05.447Z,12.5
2022-10-24T10:10:07.446Z,9.6
2022-10-24T10:15:09.607Z,10.8
2022-10-24T10:20:13.859Z,8.9
2022-10-24T10:25:21.135Z,10.4
2022-10-24T10:30:23.246Z,10.1
2022-10-24T10:35:25.136Z,9.1
2022-10-24T10:40:27.023Z,11.1
2022-10-24T10:45:29.137Z,8.1
2022-10-24T10:50:31.365Z,8.7
2022-10-24T10:55:33.297Z,9.7
2022-10-24T11:00:35.631Z,10.6
2022-10-24T11:05:38.313Z,8.9
2022-10-24T11:10:40.501Z,9.2
2022-10-24T11:15:42.693Z,11.3
2022-10-24T11:20:45.101Z,9.2
2022-10-24T11:25:47.227Z,10.4
2022-10-24T11:30:49.307Z,12.8
2022-10-24T11:35:51.404Z,11.5
2022-10-24T11:40:56.245Z,10.1
2022-10-24T11:46:03.175Z,10.9
2022-10-24T11:51:05.625Z,9.5
2022-10-24T11:56:10.019Z,11.9
2022-10-24T12:01:12.503Z,16.7
2022-10-24T12:06:14.545Z,13.5
2022-10-24T12:11:16.565Z,14.2
2022-10-24T12:16:18.722Z,12.4
2022-10-24T12:21:24.872Z,11.7
2022-10-24T12:26:27.891Z,14.9
2022-10-24T12:31:29.946Z,12.1
2022-10-24T12:36:32.757Z,15
2022-10-24T12:41:34.712Z,14.5
2022-10-24T12:46:36.857Z,12.7
2022-10-24T12:51:39.261Z,12.8
2022-10-24T12:56:42.413Z,13.2
2022-10-24T13:01:48.816Z,12.6
2022-10-24T13:06:52.156Z,14.8
2022-10-24T13:11:54.545Z,11.5
2022-10-24T13:16:56.909Z,11.2
2022-10-24T13:21:59.236Z,13.8
2022-10-24T13:27:01.188Z,13.6
2022-10-24T13:32:03.356Z,13.3
2022-10-24T13:37:05.636Z,14.9
2022-10-24T13:42:15.037Z,14.9
2022-10-24T13:47:17.147Z,15.8
2022-10-24T13:52:19.209Z,12.4
2022-10-24T13:57:21.135Z,14
2022-10-24T14:02:24.393Z,13.4
2022-10-24T14:07:23.058Z,13
2022-10-24T14:12:25.103Z,16
2022-10-24T14:17:27.401Z,13.5
2022-10-24T14:22:29.788Z,15.5
2022-10-24T14:27:31.766Z,14
2022-10-24T14:32:33.845Z,14.4
2022-10-24T14:37:35.710Z,17
2022-10-24T14:42:39.738Z,16
2022-10-24T14:47:41.908Z,15.2
2022-10-24T14:52:46.002Z,14.1
2022-10-24T14:57:49.029Z,15.5
2022-10-24T15:02:51.550Z,17.3
2022-10-24T15:08:09.591Z,17.6
2022-10-24T15:12:54.020Z,17.8
2022-10-24T15:17:56.205Z,17.1
2022-10-24T15:22:58.482Z,18.4
2022-10-24T15:28:00.592Z,19.7
2022-10-24T15:33:02.835Z,19.4
2022-10-24T15:38:06.646Z,23.2
2022-10-24T15:43:08.828Z,18.9
2022-10-24T15:48:10.782Z,22.4
2022-10-24T15:53:12.890Z,25.4
2022-10-24T15:58:15.008Z,30.8
2022-10-24T16:03:17.225Z,32
2022-10-24T16:08:19.389Z,35.5
2022-10-24T16:13:21.477Z,32.4
2022-10-24T16:18:23.469Z,63.9
2022-10-24T16:23:25.390Z,33.2
2022-10-24T16:28:27.405Z,35.5
2022-10-24T16:33:29.438Z,40.3
2022-10-24T16:38:31.400Z,36.2
2022-10-24T16:43:35.414Z,33.4
2022-10-24T16:48:40.066Z,33.2
2022-10-24T16:53:42.404Z,35.1
2022-10-24T16:58:44.463Z,38.9
2022-10-24T17:03:47.230Z,38.4
2022-10-24T17:08:49.080Z,48.1
2022-10-24T17:13:51.180Z,43.6
2022-10-24T17:19:05.837Z,51.6
2022-10-24T17:23:59.135Z,46.1
2022-10-24T17:29:01.050Z,55
2022-10-24T17:34:03.331Z,45.5
2022-10-24T17:39:07.639Z,49.8
2022-10-24T17:44:13.099Z,43
2022-10-24T17:49:17.612Z,41.1
2022-10-24T17:54:23.725Z,43.6
2022-10-24T17:59:25.698Z,43.1
2022-10-24T18:04:27.814Z,40.7
2022-10-24T18:09:29.975Z,39.1
2022-10-24T18:14:31.972Z,43.9
2022-10-24T18:19:33.929Z,41.3
2022-10-24T18:24:36.806Z,41.5
2022-10-24T18:29:38.797Z,42.4
2022-10-24T18:34:41.703Z,65.7
2022-10-24T18:39:43.924Z,45.2
2022-10-24T18:44:50.161Z,44.4
2022-10-24T18:49:54.152Z,41.4
2022-10-24T18:54:56.773Z,38.8
2022-10-24T19:00:03.061Z,41.6
2022-10-24T19:05:04.981Z,40.2
2022-10-24T19:10:07.061Z,39
2022-10-24T19:15:09.381Z,36.2
2022-10-24T19:20:13.637Z,38
2022-10-24T19:25:15.570Z,38.7
2022-10-24T19:30:17.540Z,38.8
2022-10-24T19:35:19.430Z,38.3
2022-10-24T19:40:21.360Z,63.3
2022-10-24T19:45:25.005Z,42
2022-10-24T19:50:26.259Z,38.5
2022-10-24T19:55:28.231Z,40.6
2022-10-24T20:00:30.247Z,40.8
2022-10-24T20:05:32.153Z,39
2022-10-24T20:10:33.966Z,36
2022-10-24T20:15:35.834Z,45.2
2022-10-24T20:20:37.954Z,41.5
2022-10-24T20:25:39.826Z,46.4
2022-10-24T20:30:41.663Z,49.5
2022-10-24T20:35:43.595Z,44.9
2022-10-24T20:40:45.579Z,48.7
2022-10-24T20:45:47.988Z,47.9
2022-10-24T20:50:50.069Z,53.2
2022-10-24T20:55:52.101Z,55
2022-10-24T21:00:54.027Z,49.4
2022-10-24T21:05:56.334Z,50.6
2022-10-24T21:10:58.305Z,50.6
2022-10-24T21:16:00.314Z,52.2
2022-10-24T21:21:02.464Z,50.2
2022-10-24T21:26:04.561Z,53
2022-10-24T21:31:06.523Z,52.1
2022-10-24T21:36:08.615Z,47.6
2022-10-24T21:41:10.608Z,48.8
2022-10-24T21:46:12.537Z,48.4
2022-10-24T21:51:14.723Z,52.4
2022-10-24T21:56:16.709Z,43
2022-10-24T22:01:18.663Z,46.2
2022-10-24T22:06:21.383Z,46.5
2022-10-24T22:11:23.574Z,44.9
2022-10-24T22:16:25.497Z,43.4
2022-10-24T22:21:27.696Z,44.2
2022-10-24T22:26:29.595Z,43.2
2022-10-24T22:31:31.515Z,38.9
2022-10-24T22:36:33.491Z,40.7
2022-10-24T22:41:35.561Z,42.9
2022-10-24T22:46:37.438Z,42.4
2022-10-24T22:51:39.470Z,42
2022-10-24T22:56:41.579Z,42
2022-10-24T23:01:43.528Z,42.3
2022-10-24T23:06:46.293Z,45.1
2022-10-24T23:11:48.154Z,42.7
2022-10-24T23:16:50.155Z,47.9
2022-10-24T23:21:52.025Z,48.7
2022-10-24T23:26:54.325Z,45.6
2022-10-24T23:31:56.299Z,42.8
2022-10-24T23:36:58.466Z,42.2
2022-10-24T23:42:00.300Z,41.3
2022-10-24T23:47:02.280Z,41.3
2022-10-24T23:52:04.208Z,42.5
2022-10-24T23:57:06.231Z,42.7
